Nearby METAR Reports

 

ENRY - Rygge (nor-Afb), Norway
Distance from station: SØ 12km
Oppdatert: 21/09/2021 15:20
Few Clouds
Few Clouds
 Vind fra VSV
Vind: VSV 9 km/h
Temperatur: 15°C
Duggpunkt: 10°C
Fuktighet: 72%
Barometer: 1019 hPa
Clouds: Few Clouds
Visibility: 10 km
Cloud details: Few Clouds 457 m
2021/09/21 13:20 ENRY 211320Z 25005KT 230V290 9999 FEW015 15/10 Q1019 NOSIG
ENTO - Torp (civ/Nor-Af, Norway
Distance from station: SV 34km
Oppdatert: 21/09/2021 15:20
Klart
Klart
 Vind fra V
Vind: V 11 km/h
Temperatur: 15°C
Duggpunkt: 11°C
Fuktighet: 77%
Barometer: 1019 hPa
Oversikt: Klart
Visibility: greater than 10 km
2021/09/21 13:20 ENTO 211320Z 26006KT CAVOK 15/11 Q1019 NOSIG
 
ENNO - Notodden, Norway
Distance from station: V 80km
Oppdatert: 21/09/2021 15:20
Hovedsaklig skyet
Hovedsaklig skyet
 Vind fra calm
Vind: Stille
Temperatur: 13°C
Duggpunkt: 9°C
Fuktighet: 77%
Barometer: 1020 hPa
Clouds: Hovedsaklig skyet
Visibility: 10 km
Cloud details: Few Clouds 488 m
Delvis skyet 2134 m
Hovedsaklig skyet 5182 m
2021/09/21 13:20 ENNO 211320Z 00000KT 9999 FEW016 SCT070 BKN170 13/09 Q1020
ENGM - Oslo/Gardermoen, Norway
Distance from station: NNØ 88km
Oppdatert: 21/09/2021 15:20
Hovedsaklig skyet
Hovedsaklig skyet
 Vind fra varies
Vind: varies 9 km/h
Temperatur: 15°C
Duggpunkt: 9°C
Fuktighet: 68%
Barometer: 1018 hPa
Clouds: Hovedsaklig skyet
Visibility: 10 km
Cloud details: Few Clouds 853 m
Hovedsaklig skyet 5486 m
2021/09/21 13:20 ENGM 211320Z VRB05KT 9999 FEW028 BKN180 15/09 Q1018 NOSIG
 
ESOK - Karlstad North, Sweden
Distance from station: Ø 153km
Oppdatert: 21/09/2021 15:20
Overskyet
Overskyet
 Vind fra SV
Vind: SV 7 km/h
Temperatur: 10°C
Wind Chill: 9°C
Duggpunkt: 10°C
Fuktighet: 100%
Barometer: 1020 hPa
Clouds: Overskyet
Visibility: 10 km
Cloud details: Delvis skyet 152 m
Overskyet 213 m
2021/09/21 13:20 ESOK 211320Z 23004KT 9999 SCT005 OVC007 10/10 Q1020
ESST - Torsby, Sweden
Distance from station: ØNØ 154km
Oppdatert: 21/09/2021 15:20
Overskyet
Overskyet
 Vind fra SV
Vind: SV 7 km/h
Temperatur: 12°C
Duggpunkt: 10°C
Fuktighet: 88%
Barometer: 1019 hPa
Clouds: Overskyet
Visibility: 10 km
Cloud details: Hovedsaklig skyet 366 m
Overskyet 579 m
2021/09/21 13:20 ESST 211320Z 22004KT 9999 BKN012 OVC019 12/10 Q1019
 
ESGT - Trollhattan (pvt, Sweden
Distance from station: SØ 159km
Oppdatert: 21/09/2021 15:20
Heavy drizzle, Overskyet
Heavy drizzle, Overskyet
 Vind fra SSV
Vind: SSV 17 km/h
Temperatur: 11°C
Duggpunkt: 10°C
Fuktighet: 94%
Barometer: 1020 hPa
Oversikt: Heavy Drizzle
Clouds: Overskyet
Visibility: 9 km
Cloud details: Delvis skyet 183 m
Overskyet 244 m
2021/09/21 13:20 ESGT 211320Z 20009KT 9000 +DZ SCT006 OVC008 11/10 Q1020
ESIB - Satenas (swe-Afb, Sweden
Distance from station: SØ 164km
Oppdatert: 21/09/2021 15:20
Noe regn, Yr, Hovedsaklig skyet
Noe regn, Yr, Hovedsaklig skyet
 Vind fra S
Vind: S 19 km/h
Temperatur: 10°C
Wind Chill: 7°C
Duggpunkt: 9°C
Fuktighet: 94%
Barometer: 1020 hPa
Oversikt: Noe regn, Yr
Clouds: Hovedsaklig skyet
Visibility: 10 km
Cloud details: Delvis skyet 183 m
Hovedsaklig skyet 305 m
2021/09/21 13:20 ESIB 211320Z 18010KT 9999 -RADZ SCT006 BKN010 10/09 Q1020
 
ENCN - Kristiansand/Kje, Norway
Distance from station: SV 202km
Oppdatert: 21/09/2021 15:20
Klart
Klart
 Vind fra V
Vind: V 15 km/h
Temperatur: 15°C
Duggpunkt: 8°C
Fuktighet: 63%
Barometer: 1022 hPa
Oversikt: Klart
Visibility: greater than 10 km
2021/09/21 13:20 ENCN 211320Z 26008KT 230V300 CAVOK 15/08 Q1022
EKSN - Sindal Airport, Denmark
Distance from station: S 217km
Oppdatert: 21/09/2021 14:50
Hovedsaklig skyet
Hovedsaklig skyet
 Vind fra VNV
Vind: VNV 26 km/h
Temperatur: 15°C
Duggpunkt: 11°C
Fuktighet: 77%
Barometer: 1021 hPa
Clouds: Hovedsaklig skyet
Visibility: 10 km
Cloud details: Few Clouds 518 m
Hovedsaklig skyet 6096 m
2021/09/21 12:50 EKSN 211250Z 29014KT 9999 FEW017 BKN200 15/11 Q1021
 
ESGG - Goteborg/Landvet, Sweden
Distance from station: SSØ 220km
Oppdatert: 21/09/2021 15:20
Yr, Overskyet
Yr, Overskyet
 Vind fra SSØ
Vind: SSØ 15 km/h
Temperatur: 10°C
Wind Chill: 8°C
Duggpunkt: 9°C
Fuktighet: 94%
Barometer: 1020 hPa
Oversikt: Yr
Clouds: Overskyet
Visibility: 4 km
Cloud details: Overskyet 122 m
2021/09/21 13:20 ESGG 211320Z 16008KT 3900 DZ OVC004 10/09 Q1020
ESGR - Skovde Airport, Sweden
Distance from station: ØSØ 221km
Oppdatert: 21/09/2021 15:20
Overskyet
Overskyet
 Vind fra S
Vind: S 11 km/h
Temperatur: 10°C
Wind Chill: 8°C
Duggpunkt: 8°C
Fuktighet: 88%
Barometer: 1020 hPa
Clouds: Overskyet
Visibility: 10 km
Cloud details: Hovedsaklig skyet 1676 m
Overskyet 1951 m
2021/09/21 13:20 ESGR 211320Z 18006KT 9999 BKN055 OVC064 10/08 Q1020
 
ESOE - Orebro (private), Sweden
Distance from station: Ø 252km
Oppdatert: 21/09/2021 15:20
Hovedsaklig skyet
Hovedsaklig skyet
 Vind fra SSV
Vind: SSV 15 km/h
Temperatur: 11°C
Duggpunkt: 7°C
Fuktighet: 77%
Barometer: 1021 hPa
Clouds: Hovedsaklig skyet
Visibility: 10 km
Cloud details: Delvis skyet 640 m
Hovedsaklig skyet 975 m
2021/09/21 13:20 ESOE 211320Z 20008KT 9999 SCT021 BKN032 11/07 Q1021
EKYT - Alborg, Denmark
Distance from station: S 264km
Oppdatert: 21/09/2021 15:21
Few Clouds
Few Clouds
 Vind fra VNV
Vind: VNV 26 km/h
Temperatur: 16°C
Duggpunkt: 11°C
Fuktighet: 72%
Barometer: 1022 hPa
Clouds: Few Clouds
Visibility: 10 km
Cloud details: Few Clouds 762 m
2021/09/21 13:21 EKYT 211321Z 30014KT 270V330 9999 FEW025 16/11 Q1022
 
ENSG - Sogndal/Haukasen, Norway
Distance from station: NV 269km
Oppdatert: 21/09/2021 14:50
Rain Showers
Rain Showers
 Vind fra VSV
Vind: VSV 20 km/h
Oversikt: Rain Showers
Visibility: 10 km
2021/09/21 12:50 ENSG 211250Z 25011KT 9999 7000W SHRA FEW/// SCT030 BKN040 09/07 Q1019 RMK WIND 3806FT 28027KT
ESGJ - Jonkoping Airpor, Sweden
Distance from station: SØ 273km
Oppdatert: 21/09/2021 15:20
Noe regn, Delvis skyet
Noe regn, Delvis skyet
 Vind fra S
Vind: S 11 km/h
Temperatur: 9°C
Wind Chill: 7°C
Duggpunkt: 8°C
Fuktighet: 94%
Barometer: 1021 hPa
Oversikt: Noe regn
Clouds: Delvis skyet
Visibility: 10 km
Cloud details: Delvis skyet 1676 m
2021/09/21 13:20 ESGJ 211320Z 19006KT 9999 -RA SCT055 09/08 Q1021
 
ENZV - Stavanger/Sola(A, Norway
Distance from station: V 292km
Oppdatert: 21/09/2021 15:20
Overskyet
Overskyet
 Vind fra VNV
Vind: VNV 19 km/h
Temperatur: 15°C
Duggpunkt: 10°C
Fuktighet: 72%
Barometer: 1023 hPa
Clouds: Overskyet
Visibility: 10 km
Cloud details: Few Clouds 701 m
Overskyet 1250 m
2021/09/21 13:20 ENZV 211320Z 29010KT 9999 FEW023 OVC041 15/10 Q1023 NOSIG
ESSD - Borlange (swe-Af, Sweden
Distance from station: ØNØ 292km
Oppdatert: 21/09/2021 15:20
Hovedsaklig skyet
Hovedsaklig skyet
 Vind fra S
Vind: S 7 km/h
Temperatur: 8°C
Wind Chill: 7°C
Duggpunkt: 7°C
Fuktighet: 93%
Barometer: 1019 hPa
Clouds: Hovedsaklig skyet
Visibility: 8 km
Cloud details: Hovedsaklig skyet 213 m
2021/09/21 13:20 ESSD 211320Z 19004KT 140V220 8000 BKN007 08/07 Q1019 RERA
 
ENSO - Stord/Soerstokke, Norway
Distance from station: V 300km
Oppdatert: 21/09/2021 15:20
Noe regn, Showers, Hovedsaklig skyet
Noe regn, Showers, Hovedsaklig skyet
 Vind fra V
Vind: V 13 km/h
Temperatur: 14°C
Duggpunkt: 11°C
Fuktighet: 82%
Barometer: 1022 hPa
Oversikt: Noe regn, Showers
Clouds: Hovedsaklig skyet
Visibility: 10 km
Cloud details: Delvis skyet 762 m
Hovedsaklig skyet 1829 m
2021/09/21 13:20 ENSO 211320Z 26007KT 230V290 9999 -SHRA SCT025 BKN060 14/11 Q1022
ESCF - Linkoping/Malmen, Sweden
Distance from station: ØSØ 305km
Oppdatert: 21/09/2021 15:20
Noe regn, Overskyet
Noe regn, Overskyet
 Vind fra SSV
Vind: SSV 11 km/h
Temperatur: 11°C
Duggpunkt: 6°C
Fuktighet: 72%
Barometer: 1021 hPa
Oversikt: Noe regn
Clouds: Overskyet
Visibility: 10 km
Cloud details: Delvis skyet 945 m
Overskyet 2286 m
2021/09/21 13:20 ESCF 211320Z 21006KT 190V250 9999 -RA SCT031 OVC075 11/06 Q1021